Time;durP1;ratioP1;P1;durP2;ratioP2;P2;SDS_P1;SDS_P2;PMS_P1;PMS_P2;Temp;Humidity;BMP_temperature;BMP_pressure;BME280_temperature;BME280_humidity;BME280_pressure;Samples;Min_cycle;Max_cycle;Signal;HPM_P1;HPM_P2
2022/11/27 00:00:33;;;;;;;28.13;11.02;;;7.50;99.90;;;;;;5012605;28;20037;-70
2022/11/27 00:02:59;;;;;;;27.40;11.40;;;7.50;99.90;;;;;;5012839;28;20208;-71
2022/11/27 00:05:25;;;;;;;21.95;11.38;;;7.50;99.90;;;;;;5012674;28;20498;-70
2022/11/27 00:07:50;;;;;;;21.92;10.38;;;7.30;99.90;;;;;;5012691;28;20113;-70
2022/11/27 00:10:16;;;;;;;19.55;9.88;;;7.40;99.90;;;;;;5012635;28;20128;-70
2022/11/27 00:12:42;;;;;;;23.52;10.50;;;7.40;99.90;;;;;;5012974;28;20112;-70
2022/11/27 00:15:08;;;;;;;20.67;10.93;;;7.40;99.90;;;;;;5012737;28;20038;-72
2022/11/27 00:17:33;;;;;;;24.90;10.60;;;7.40;99.90;;;;;;5012498;28;20045;-71
2022/11/27 00:19:59;;;;;;;25.33;11.45;;;7.30;99.90;;;;;;5011441;28;20100;-70
2022/11/27 00:22:26;;;;;;;19.25;10.45;;;7.30;99.90;;;;;;5012695;28;20034;-69
2022/11/27 00:24:52;;;;;;;23.33;10.68;;;7.30;99.90;;;;;;5012911;28;20393;-70
2022/11/27 00:27:18;;;;;;;28.25;11.77;;;7.30;99.90;;;;;;5012568;28;20117;-71
2022/11/27 00:29:44;;;;;;;22.63;10.85;;;7.30;99.90;;;;;;5012595;28;20459;-71
2022/11/27 00:32:09;;;;;;;22.70;10.65;;;7.30;99.90;;;;;;5012641;28;20056;-70
2022/11/27 00:34:35;;;;;;;19.17;9.60;;;7.30;99.90;;;;;;5012351;28;20030;-71
2022/11/27 00:37:01;;;;;;;24.58;10.65;;;7.30;99.90;;;;;;5012929;28;20391;-70
2022/11/27 00:39:26;;;;;;;20.67;10.35;;;7.20;99.90;;;;;;5012509;28;20038;-71
2022/11/27 00:41:53;;;;;;;25.13;9.75;;;7.30;99.90;;;;;;5012314;28;20365;-70
2022/11/27 00:44:18;;;;;;;26.30;11.52;;;7.20;99.90;;;;;;5012474;28;20030;-71
2022/11/27 00:46:45;;;;;;;21.80;9.95;;;7.20;99.90;;;;;;5012162;28;20127;-71
2022/11/27 00:49:13;;;;;;;27.27;11.45;;;7.20;99.90;;;;;;5012128;28;20034;-70
2022/11/27 00:51:39;;;;;;;20.98;10.10;;;7.20;99.90;;;;;;5012273;28;20100;-70
2022/11/27 00:54:05;;;;;;;23.23;10.52;;;7.20;99.90;;;;;;5011922;28;20540;-71
2022/11/27 00:56:34;;;;;;;23.13;11.80;;;7.10;99.90;;;;;;5011969;28;20038;-70
2022/11/27 00:59:00;;;;;;;22.30;10.60;;;7.20;99.90;;;;;;5012069;28;20360;-70
2022/11/27 01:01:28;;;;;;;18.83;10.60;;;7.20;99.90;;;;;;5011883;28;20037;-72
2022/11/27 01:03:59;;;;;;;20.58;10.85;;;7.20;99.90;;;;;;5012421;28;20022;-71
2022/11/27 01:06:26;;;;;;;19.33;10.57;;;7.10;99.90;;;;;;5011673;28;20038;-71
2022/11/27 01:08:52;;;;;;;24.33;10.82;;;7.10;99.90;;;;;;5011438;28;20064;-70
2022/11/27 01:11:20;;;;;;;19.40;10.52;;;7.10;99.90;;;;;;5010885;28;20042;-71
2022/11/27 01:13:47;;;;;;;24.70;10.75;;;7.10;99.90;;;;;;5011397;28;20026;-71
2022/11/27 01:16:15;;;;;;;22.20;11.23;;;7.20;99.90;;;;;;5011472;28;20258;-70
2022/11/27 01:18:43;;;;;;;21.27;10.93;;;7.10;99.90;;;;;;5011920;28;20375;-71
2022/11/27 01:21:10;;;;;;;22.90;11.32;;;7.10;99.90;;;;;;5011606;28;20030;-71
2022/11/27 01:23:36;;;;;;;24.50;11.13;;;7.10;99.90;;;;;;5011051;28;20036;-70
2022/11/27 01:26:04;;;;;;;18.80;9.65;;;7.10;99.90;;;;;;5011204;28;20378;-71
2022/11/27 01:28:30;;;;;;;20.55;10.43;;;7.10;99.90;;;;;;5011174;28;20034;-71
2022/11/27 01:30:56;;;;;;;18.75;10.25;;;7.10;99.90;;;;;;5010322;28;20365;-72
2022/11/27 01:33:22;;;;;;;24.50;10.38;;;7.10;99.90;;;;;;5011389;28;20037;-71
2022/11/27 01:35:59;;;;;;;23.35;10.45;;;7.10;99.90;;;;;;5010258;28;20424;-70
2022/11/27 01:38:26;;;;;;;21.60;10.75;;;7.00;99.90;;;;;;5011028;28;20030;-71
2022/11/27 01:41:06;;;;;;;20.63;10.20;;;7.10;99.90;;;;;;5010803;28;20060;-69
2022/11/27 01:43:53;;;;;;;21.98;10.40;;;7.10;99.90;;;;;;5010969;28;20076;-70
2022/11/27 01:46:36;;;;;;;18.08;9.50;;;7.00;99.90;;;;;;5011008;28;20040;-69
2022/11/27 01:49:23;;;;;;;29.58;10.55;;;7.00;99.90;;;;;;5011471;28;20498;-70
2022/11/27 01:51:55;;;;;;;18.35;9.20;;;7.00;99.90;;;;;;5010975;28;20541;-69
2022/11/27 01:54:25;;;;;;;20.48;9.88;;;7.00;99.90;;;;;;5010922;28;20072;-69
2022/11/27 01:56:55;;;;;;;22.42;10.10;;;7.00;99.90;;;;;;5010849;28;20391;-70
2022/11/27 01:59:22;;;;;;;106.72;51.60;;;6.90;99.90;;;;;;5009723;28;20038;-71
2022/11/27 02:01:48;;;;;;;24.13;11.57;;;6.90;99.90;;;;;;5010740;28;20033;-70
2022/11/27 02:04:14;;;;;;;21.60;9.63;;;6.90;99.90;;;;;;5009570;28;20026;-71
2022/11/27 02:06:39;;;;;;;21.42;10.30;;;6.90;99.90;;;;;;5011059;28;20021;-70
2022/11/27 02:09:05;;;;;;;18.17;10.50;;;7.00;99.90;;;;;;5010533;28;20420;-71
2022/11/27 02:11:54;;;;;;;21.08;9.93;;;7.00;99.90;;;;;;5010398;28;20077;-69
2022/11/27 02:14:28;;;;;;;20.88;10.00;;;7.00;99.90;;;;;;5009698;28;20029;-71
2022/11/27 02:17:16;;;;;;;21.48;10.32;;;7.00;99.90;;;;;;5009648;28;20062;-71
2022/11/27 02:20:19;;;;;;;19.83;11.05;;;7.00;99.90;;;;;;5010442;28;20030;-71
2022/11/27 02:23:03;;;;;;;19.30;10.90;;;7.00;99.90;;;;;;5010110;28;20441;-71
2022/11/27 02:26:02;;;;;;;23.60;10.68;;;7.10;99.90;;;;;;5010724;28;20093;-71
2022/11/27 02:28:41;;;;;;;24.40;9.93;;;7.10;99.90;;;;;;5010471;28;20465;-69
2022/11/27 02:31:18;;;;;;;26.45;11.15;;;7.10;99.90;;;;;;5010814;28;20037;-69
2022/11/27 02:33:49;;;;;;;24.17;11.60;;;7.10;99.90;;;;;;5010651;28;20060;-70
2022/11/27 02:36:25;;;;;;;23.05;10.95;;;7.20;99.90;;;;;;5021753;28;20033;-71
2022/11/27 02:39:03;;;;;;;22.67;10.20;;;7.10;99.90;;;;;;5028967;28;20044;-71
2022/11/27 02:41:35;;;;;;;23.27;9.75;;;7.20;99.90;;;;;;5028980;28;20034;-70
2022/11/27 02:44:03;;;;;;;18.63;10.65;;;7.10;99.90;;;;;;5030153;28;20044;-70
2022/11/27 02:46:29;;;;;;;25.65;11.32;;;7.10;99.90;;;;;;5030023;28;20022;-71
2022/11/27 02:49:05;;;;;;;25.63;11.15;;;7.10;99.90;;;;;;5030447;28;20044;-71
2022/11/27 02:51:53;;;;;;;24.42;10.60;;;7.10;99.90;;;;;;5028838;28;20033;-70
2022/11/27 02:54:26;;;;;;;19.70;10.43;;;7.10;99.90;;;;;;5030038;28;20053;-70
2022/11/27 02:56:53;;;;;;;22.90;10.27;;;7.10;99.90;;;;;;5030108;28;20037;-69
2022/11/27 02:59:21;;;;;;;27.42;11.18;;;7.10;99.90;;;;;;5030247;28;20026;-71
2022/11/27 03:01:50;;;;;;;;;;;7.10;99.90;;;;;;5029265;28;20036;-69
2022/11/27 03:04:21;;;;;;;19.88;10.13;;;7.10;99.90;;;;;;5030055;28;20014;-71
2022/11/27 03:06:52;;;;;;;25.23;11.38;;;7.10;99.90;;;;;;5030369;28;20033;-69
2022/11/27 03:09:24;;;;;;;18.70;10.90;;;7.10;99.90;;;;;;5029735;28;20427;-69
2022/11/27 03:11:50;;;;;;;23.48;11.90;;;7.00;99.90;;;;;;5029477;28;20064;-71
2022/11/27 03:14:19;;;;;;;19.40;10.00;;;7.00;99.90;;;;;;5028610;28;20029;-71
2022/11/27 03:17:00;;;;;;;21.33;11.43;;;7.00;99.90;;;;;;5028553;28;20487;-70
2022/11/27 03:19:32;;;;;;;26.83;11.68;;;7.00;99.90;;;;;;5029616;28;20053;-69
2022/11/27 03:22:00;;;;;;;23.58;11.98;;;7.00;99.90;;;;;;5029147;28;20088;-69
2022/11/27 03:24:28;;;;;;;29.75;11.77;;;6.90;99.90;;;;;;5029492;28;20037;-70
2022/11/27 03:26:55;;;;;;;24.27;12.32;;;6.90;99.90;;;;;;5028555;28;20025;-70
2022/11/27 03:29:34;;;;;;;23.75;11.18;;;6.90;99.90;;;;;;5028546;28;20030;-71
2022/11/27 03:32:01;;;;;;;21.60;11.73;;;6.90;99.90;;;;;;5028207;28;20120;-69
2022/11/27 03:34:27;;;;;;;23.65;12.02;;;6.80;99.90;;;;;;5029612;28;20320;-70
2022/11/27 03:36:53;;;;;;;22.08;11.20;;;6.80;99.90;;;;;;5033616;28;20359;-70
2022/11/27 03:39:20;;;;;;;23.27;12.13;;;6.90;99.90;;;;;;5032282;28;20423;-70
2022/11/27 03:42:04;;;;;;;27.38;11.95;;;7.00;99.90;;;;;;5033034;28;20029;-71
2022/11/27 03:44:56;;;;;;;25.02;10.95;;;6.90;99.90;;;;;;5033059;28;20033;-71
2022/11/27 03:47:28;;;;;;;19.77;10.15;;;6.90;99.90;;;;;;5032946;28;20033;-70
2022/11/27 03:50:20;;;;;;;21.60;10.18;;;7.00;99.90;;;;;;5032739;28;20049;-70
2022/11/27 03:52:55;;;;;;;24.00;11.52;;;6.90;99.90;;;;;;5032671;28;20083;-69
2022/11/27 03:55:42;;;;;;;21.75;10.27;;;6.90;99.90;;;;;;5031522;28;20400;-70
2022/11/27 03:58:32;;;;;;;19.67;10.48;;;6.90;99.90;;;;;;5033105;28;20083;-69
2022/11/27 04:01:00;;;;;;;21.33;9.95;;;6.90;99.90;;;;;;5032822;28;20103;-70
2022/11/27 04:03:28;;;;;;;20.80;9.75;;;7.00;99.90;;;;;;5032558;28;20030;-70
2022/11/27 04:05:54;;;;;;;20.95;11.07;;;6.90;99.90;;;;;;5032311;28;20041;-69
2022/11/27 04:08:20;;;;;;;20.15;10.18;;;7.00;99.90;;;;;;5032429;28;20352;-70
2022/11/27 04:10:46;;;;;;;19.67;10.35;;;6.90;99.90;;;;;;5032516;28;20042;-71
2022/11/27 04:13:13;;;;;;;17.77;9.90;;;6.90;99.90;;;;;;5031155;28;20410;-69
2022/11/27 04:15:39;;;;;;;23.17;9.73;;;6.90;99.90;;;;;;5032778;28;20037;-70
2022/11/27 04:18:05;;;;;;;17.58;9.32;;;7.00;99.90;;;;;;5032341;28;20378;-71
2022/11/27 04:20:31;;;;;;;20.55;9.95;;;6.90;99.90;;;;;;5032429;28;20052;-71
2022/11/27 04:22:57;;;;;;;22.33;10.18;;;6.80;99.90;;;;;;5032140;28;20034;-69
2022/11/27 04:25:22;;;;;;;17.27;9.35;;;6.80;99.90;;;;;;5032322;28;20029;-69
2022/11/27 04:27:49;;;;;;;17.80;9.00;;;6.80;99.90;;;;;;5031423;28;20032;-70
2022/11/27 04:30:15;;;;;;;17.90;9.10;;;6.70;99.90;;;;;;5032154;28;20040;-70
2022/11/27 04:32:40;;;;;;;17.17;9.30;;;6.70;99.90;;;;;;5030994;28;20042;-70
2022/11/27 04:35:07;;;;;;;26.02;9.63;;;6.70;99.90;;;;;;5031966;28;20375;-69
2022/11/27 04:37:33;;;;;;;22.05;9.90;;;6.70;99.90;;;;;;5030861;28;20036;-69
2022/11/27 04:39:59;;;;;;;20.23;9.45;;;6.80;99.90;;;;;;5031534;28;20021;-70
2022/11/27 04:42:25;;;;;;;18.60;9.50;;;6.80;99.90;;;;;;5031744;28;20029;-70
2022/11/27 04:44:51;;;;;;;19.05;8.73;;;6.80;99.90;;;;;;5032004;28;20490;-70
2022/11/27 04:47:16;;;;;;;19.23;8.93;;;6.80;99.90;;;;;;5031695;28;20061;-71
2022/11/27 04:49:42;;;;;;;20.67;9.40;;;6.80;99.90;;;;;;5031529;28;20147;-71
2022/11/27 04:52:09;;;;;;;21.33;9.48;;;6.80;99.90;;;;;;5031936;28;20494;-70
2022/11/27 04:54:35;;;;;;;19.80;9.10;;;6.80;99.90;;;;;;5030267;28;20041;-70
2022/11/27 04:57:02;;;;;;;21.10;9.70;;;6.80;99.90;;;;;;5030532;28;20475;-70
2022/11/27 04:59:28;;;;;;;19.30;9.75;;;6.80;99.90;;;;;;5031671;28;20048;-71
2022/11/27 05:01:53;;;;;;;20.63;9.23;;;6.80;99.90;;;;;;5031398;28;20086;-69
2022/11/27 05:04:20;;;;;;;17.25;8.85;;;6.80;99.90;;;;;;5031435;28;20025;-71
2022/11/27 05:06:45;;;;;;;18.77;9.55;;;6.80;99.90;;;;;;5031788;28;20096;-71
2022/11/27 05:09:11;;;;;;;18.27;9.38;;;6.80;99.90;;;;;;5031083;28;20203;-72
2022/11/27 05:11:37;;;;;;;19.40;10.25;;;6.80;99.90;;;;;;5030887;28;20057;-71
2022/11/27 05:14:15;;;;;;;24.67;9.95;;;6.80;99.90;;;;;;5030907;28;20084;-70
2022/11/27 05:16:42;;;;;;;18.73;9.43;;;6.70;99.90;;;;;;5031162;28;20032;-69
2022/11/27 05:19:09;;;;;;;21.85;9.00;;;6.80;99.90;;;;;;5031582;28;20021;-69
2022/11/27 05:21:36;;;;;;;18.33;8.55;;;6.80;99.90;;;;;;5031656;28;20033;-69
2022/11/27 05:24:02;;;;;;;17.80;9.30;;;6.70;99.90;;;;;;5031039;28;20452;-70
2022/11/27 05:26:27;;;;;;;20.55;9.25;;;6.70;99.90;;;;;;5029904;28;20026;-71
2022/11/27 05:28:53;;;;;;;17.92;9.02;;;6.70;99.90;;;;;;5030695;28;20034;-68
2022/11/27 05:31:19;;;;;;;18.55;8.65;;;6.80;99.90;;;;;;5030068;28;20029;-69
2022/11/27 05:33:45;;;;;;;15.73;8.73;;;6.60;99.90;;;;;;5031426;28;20292;-69
2022/11/27 05:36:10;;;;;;;16.90;8.02;;;6.60;99.90;;;;;;5030837;28;20038;-70
2022/11/27 05:38:36;;;;;;;21.52;8.50;;;6.50;99.90;;;;;;5030381;28;20033;-70
2022/11/27 05:41:02;;;;;;;19.80;8.43;;;6.50;99.90;;;;;;5030939;28;20037;-70
2022/11/27 05:43:27;;;;;;;18.00;8.30;;;6.50;99.90;;;;;;5030590;28;20040;-71
2022/11/27 05:45:53;;;;;;;15.77;7.82;;;6.50;99.90;;;;;;5031086;28;20105;-70
2022/11/27 05:48:19;;;;;;;20.55;7.35;;;6.50;99.90;;;;;;5029852;28;20515;-71
2022/11/27 05:50:45;;;;;;;16.67;8.65;;;6.50;99.90;;;;;;5030285;28;20029;-70
2022/11/27 05:53:11;;;;;;;16.40;7.93;;;6.50;99.90;;;;;;5029275;28;20067;-71
2022/11/27 05:55:36;;;;;;;15.93;7.43;;;6.50;99.90;;;;;;5029292;28;20025;-71
2022/11/27 05:58:03;;;;;;;15.32;7.63;;;6.50;99.90;;;;;;5030581;28;20053;-69
2022/11/27 06:00:28;;;;;;;16.92;6.90;;;6.60;99.90;;;;;;5030280;28;20036;-70
2022/11/27 06:02:55;;;;;;;15.45;6.18;;;6.50;99.90;;;;;;5030466;28;20046;-69
2022/11/27 06:05:20;;;;;;;10.27;6.22;;;6.50;99.90;;;;;;5030415;28;20041;-70
2022/11/27 06:07:46;;;;;;;12.10;6.60;;;6.50;99.90;;;;;;5029369;28;20030;-70
2022/11/27 06:10:12;;;;;;;13.05;6.65;;;6.50;99.90;;;;;;5029997;28;20435;-70
2022/11/27 06:12:37;;;;;;;16.45;7.47;;;6.50;99.90;;;;;;5029571;28;20025;-70
2022/11/27 06:15:03;;;;;;;13.10;7.10;;;6.50;99.90;;;;;;5030380;28;20365;-69
2022/11/27 06:17:29;;;;;;;14.65;6.90;;;6.40;99.90;;;;;;5029782;28;20117;-71
2022/11/27 06:19:55;;;;;;;15.18;6.47;;;6.40;99.90;;;;;;5030453;28;20086;-70
2022/11/27 06:22:20;;;;;;;17.15;7.40;;;6.50;99.90;;;;;;5030144;28;20056;-70
2022/11/27 06:24:46;;;;;;;14.15;6.60;;;6.40;99.90;;;;;;5029919;28;20025;-69
2022/11/27 06:27:12;;;;;;;13.73;6.88;;;6.50;99.90;;;;;;5030119;28;20388;-69
2022/11/27 06:29:38;;;;;;;12.40;5.93;;;6.50;99.90;;;;;;5030047;28;20375;-71
2022/11/27 06:32:04;;;;;;;12.93;6.03;;;6.50;99.90;;;;;;5029946;28;20383;-70
2022/11/27 06:34:30;;;;;;;14.10;6.45;;;6.40;99.90;;;;;;5030258;28;20029;-70
2022/11/27 06:36:56;;;;;;;14.48;6.97;;;6.50;99.90;;;;;;5030439;28;20032;-69
2022/11/27 06:39:22;;;;;;;14.30;6.88;;;6.50;99.90;;;;;;5029973;28;20072;-69
2022/11/27 06:41:48;;;;;;;12.38;6.28;;;6.50;99.90;;;;;;5030058;28;20055;-69
2022/11/27 06:44:13;;;;;;;15.27;6.80;;;6.60;99.90;;;;;;5030147;28;20459;-69
2022/11/27 06:46:39;;;;;;;14.40;6.88;;;6.60;99.90;;;;;;5029963;28;20060;-69
2022/11/27 06:49:05;;;;;;;12.90;6.32;;;6.60;99.90;;;;;;5030407;28;20026;-70
2022/11/27 06:51:32;;;;;;;17.67;6.68;;;6.60;99.90;;;;;;5028774;28;20535;-69
2022/11/27 06:54:01;;;;;;;16.58;6.35;;;6.50;99.90;;;;;;5030094;28;20087;-70
2022/11/27 06:56:29;;;;;;;18.45;7.30;;;6.60;99.90;;;;;;5029776;28;20065;-68
2022/11/27 06:58:57;;;;;;;16.75;6.82;;;6.60;99.90;;;;;;5029848;28;20041;-68
2022/11/27 07:01:23;;;;;;;;;;;6.60;99.90;;;;;;5030214;28;20041;-68
2022/11/27 07:03:49;;;;;;;14.20;6.85;;;6.60;99.90;;;;;;5029142;28;19916;-68
2022/11/27 07:06:18;;;;;;;19.88;7.28;;;6.60;99.90;;;;;;5028616;28;20033;-69
2022/11/27 07:08:44;;;;;;;20.35;6.43;;;6.60;99.90;;;;;;5029635;28;20060;-69
2022/11/27 07:11:17;;;;;;;16.85;7.35;;;6.60;99.90;;;;;;5031871;28;20399;-69
2022/11/27 07:13:43;;;;;;;16.05;7.13;;;6.70;99.90;;;;;;5033824;28;20040;-70
2022/11/27 07:16:10;;;;;;;17.13;7.55;;;6.70;99.90;;;;;;5033866;28;20109;-70
2022/11/27 07:18:41;;;;;;;27.60;8.23;;;6.70;99.90;;;;;;5033525;28;20026;-70
2022/11/27 07:21:07;;;;;;;18.33;7.30;;;6.60;99.90;;;;;;5033603;28;20058;-70
2022/11/27 07:23:34;;;;;;;19.90;7.80;;;6.60;99.90;;;;;;5033493;28;20029;-69
2022/11/27 07:26:12;;;;;;;18.80;7.07;;;6.60;99.90;;;;;;5033451;28;20539;-71
2022/11/27 07:28:37;;;;;;;17.52;8.32;;;6.60;99.90;;;;;;5033361;28;20540;-70
2022/11/27 07:31:04;;;;;;;16.42;7.60;;;6.70;99.90;;;;;;5033588;28;20134;-70
2022/11/27 07:33:30;;;;;;;17.70;8.18;;;6.60;99.90;;;;;;5033493;28;20045;-70
2022/11/27 07:36:00;;;;;;;19.55;8.77;;;6.60;99.90;;;;;;5033171;28;20025;-70
2022/11/27 07:38:26;;;;;;;18.45;8.05;;;6.60;99.90;;;;;;5032981;28;20043;-70
2022/11/27 07:40:52;;;;;;;19.23;8.90;;;6.60;99.90;;;;;;5033094;28;20038;-70
2022/11/27 07:43:17;;;;;;;16.02;7.55;;;6.60;99.90;;;;;;5033073;28;20320;-70
2022/11/27 07:45:43;;;;;;;21.38;6.90;;;6.60;99.90;;;;;;5033893;28;20104;-70
2022/11/27 07:48:09;;;;;;;14.82;6.65;;;6.60;99.90;;;;;;5031932;28;20176;-71
2022/11/27 07:50:34;;;;;;;11.70;6.72;;;6.60;99.90;;;;;;5032870;28;20375;-70
2022/11/27 07:53:00;;;;;;;21.73;6.88;;;6.60;99.90;;;;;;5033076;28;20048;-71
2022/11/27 07:55:25;;;;;;;15.30;7.13;;;6.70;99.90;;;;;;5032624;28;20017;-69
2022/11/27 07:57:51;;;;;;;15.35;6.65;;;6.70;99.90;;;;;;5033205;28;20041;-69
2022/11/27 08:00:17;;;;;;;12.93;6.10;;;6.60;99.90;;;;;;5031779;28;20029;-70
2022/11/27 08:02:43;;;;;;;12.20;6.10;;;6.60;99.90;;;;;;5032714;28;20068;-69
2022/11/27 08:05:09;;;;;;;15.70;6.75;;;6.70;99.90;;;;;;5031600;28;20061;-69
2022/11/27 08:07:34;;;;;;;19.30;6.68;;;6.70;99.90;;;;;;5032758;28;20036;-71
2022/11/27 08:10:00;;;;;;;13.68;6.95;;;6.80;99.90;;;;;;5031901;28;20037;-70
2022/11/27 08:12:26;;;;;;;16.02;6.55;;;6.80;99.90;;;;;;5032093;28;20045;-70
2022/11/27 08:14:52;;;;;;;21.10;6.88;;;6.80;99.90;;;;;;5032559;28;20038;-71
2022/11/27 08:17:17;;;;;;;19.45;7.72;;;6.80;99.90;;;;;;5032605;28;20111;-70
2022/11/27 08:19:43;;;;;;;18.40;7.82;;;6.90;99.90;;;;;;5032376;28;20036;-70
2022/11/27 08:22:13;;;;;;;15.77;6.40;;;6.90;99.90;;;;;;5032253;28;20049;-69
2022/11/27 08:24:41;;;;;;;16.73;6.30;;;7.00;99.90;;;;;;5032287;28;20121;-68
2022/11/27 08:27:07;;;;;;;20.95;6.57;;;7.00;99.90;;;;;;5031849;28;20029;-66
2022/11/27 08:29:33;;;;;;;12.05;6.47;;;7.20;99.90;;;;;;5032069;28;20363;-66
2022/11/27 08:31:59;;;;;;;12.88;6.65;;;7.20;99.90;;;;;;5031956;28;20523;-68
2022/11/27 08:34:25;;;;;;;13.13;6.15;;;7.30;99.90;;;;;;5031551;28;20113;-69
2022/11/27 08:36:51;;;;;;;17.92;6.57;;;7.40;99.90;;;;;;5032010;28;20028;-67
2022/11/27 08:39:17;;;;;;;17.48;6.28;;;7.50;99.90;;;;;;5031982;28;20087;-67
2022/11/27 08:41:43;;;;;;;14.95;6.43;;;7.50;99.90;;;;;;5031527;28;20033;-68
2022/11/27 08:44:09;;;;;;;16.45;7.18;;;7.60;99.90;;;;;;5030877;28;20043;-68
2022/11/27 08:46:34;;;;;;;13.85;6.30;;;7.70;99.90;;;;;;5032125;28;20057;-70
2022/11/27 08:49:00;;;;;;;15.48;6.00;;;7.70;99.90;;;;;;5030874;28;20052;-68
2022/11/27 08:51:26;;;;;;;16.73;6.55;;;7.70;99.90;;;;;;5031536;28;20044;-68
2022/11/27 08:53:51;;;;;;;13.45;6.03;;;7.80;99.90;;;;;;5031566;28;20407;-68
2022/11/27 08:56:23;;;;;;;13.63;5.60;;;7.70;99.90;;;;;;5031415;28;20037;-68
2022/11/27 08:58:49;;;;;;;12.15;5.53;;;7.70;99.90;;;;;;5031334;28;20045;-69
2022/11/27 09:01:18;;;;;;;14.95;5.80;;;7.80;99.90;;;;;;5031477;28;20017;-69
2022/11/27 09:03:44;;;;;;;15.80;5.95;;;7.80;99.90;;;;;;5030822;28;20047;-71
2022/11/27 09:06:20;;;;;;;11.38;5.32;;;7.80;99.90;;;;;;5031463;28;20061;-70
2022/11/27 09:08:46;;;;;;;10.90;5.35;;;7.80;99.90;;;;;;5031435;28;20121;-70
2022/11/27 09:11:14;;;;;;;12.60;5.80;;;7.80;99.90;;;;;;5029947;28;20050;-69
2022/11/27 09:13:41;;;;;;;17.67;5.78;;;8.00;99.90;;;;;;5030327;28;20452;-70
2022/11/27 09:16:10;;;;;;;11.00;5.63;;;8.20;99.90;;;;;;5031663;28;20075;-72
2022/11/27 09:18:36;;;;;;;20.08;8.10;;;8.00;99.90;;;;;;5031253;28;20069;-72
2022/11/27 09:21:09;;;;;;;15.45;7.30;;;8.10;99.90;;;;;;5030167;28;20084;-73
2022/11/27 09:23:39;;;;;;;15.73;8.02;;;8.20;99.90;;;;;;5031261;28;20271;-73
2022/11/27 09:26:10;;;;;;;15.93;7.03;;;8.30;99.90;;;;;;5031104;28;20036;-71
2022/11/27 09:28:37;;;;;;;14.45;6.25;;;8.40;99.90;;;;;;5029895;28;20117;-71
2022/11/27 09:31:05;;;;;;;12.10;5.13;;;8.30;99.60;;;;;;5031618;28;20021;-73
2022/11/27 09:33:36;;;;;;;13.57;5.50;;;8.30;99.70;;;;;;5030394;28;20124;-72
2022/11/27 09:36:06;;;;;;;16.45;5.85;;;8.40;99.80;;;;;;5031067;28;20026;-73
2022/11/27 09:38:32;;;;;;;14.50;5.97;;;8.50;99.70;;;;;;5030863;28;20034;-71
2022/11/27 09:41:06;;;;;;;11.70;5.80;;;8.60;99.60;;;;;;5031168;28;20060;-72
2022/11/27 09:43:39;;;;;;;11.73;5.95;;;8.50;99.50;;;;;;5030816;28;20400;-73
2022/11/27 09:46:16;;;;;;;9.95;5.32;;;8.60;99.60;;;;;;5031422;28;20037;-71
2022/11/27 09:48:44;;;;;;;12.77;6.00;;;8.60;99.40;;;;;;5031005;28;20447;-71
2022/11/27 09:51:40;;;;;;;19.20;6.43;;;8.60;99.50;;;;;;5030683;28;20033;-71
2022/11/27 09:54:25;;;;;;;15.90;6.13;;;8.60;99.60;;;;;;5029408;28;20059;-72
2022/11/27 09:56:53;;;;;;;12.65;5.30;;;8.60;99.60;;;;;;5030505;28;20471;-70
2022/11/27 09:59:24;;;;;;;14.80;6.30;;;8.60;99.60;;;;;;5030475;28;20029;-70
2022/11/27 10:01:50;;;;;;;11.50;4.93;;;8.70;99.70;;;;;;5030852;28;20029;-71
2022/11/27 10:04:19;;;;;;;14.10;5.97;;;8.80;99.60;;;;;;5029630;28;20100;-70
2022/11/27 10:07:03;;;;;;;14.25;5.90;;;8.90;99.50;;;;;;5029924;28;20037;-69
2022/11/27 10:09:48;;;;;;;16.65;6.45;;;8.90;99.40;;;;;;5030690;28;20036;-71
2022/11/27 10:12:44;;;;;;;14.00;6.45;;;8.90;99.40;;;;;;5029514;28;20061;-71
2022/11/27 10:15:10;;;;;;;12.10;5.13;;;8.90;99.50;;;;;;5030547;28;20034;-72
2022/11/27 10:17:59;;;;;;;16.48;6.28;;;9.00;99.50;;;;;;5029465;28;20417;-71
2022/11/27 10:20:28;;;;;;;13.75;6.13;;;9.00;99.50;;;;;;5020349;28;20025;-70
2022/11/27 10:23:15;;;;;;;12.48;6.50;;;9.00;99.40;;;;;;5030647;28;20474;-70
2022/11/27 10:25:58;;;;;;;13.75;6.05;;;8.90;99.40;;;;;;5030482;28;20025;-72
2022/11/27 10:28:45;;;;;;;11.07;5.60;;;8.90;99.40;;;;;;5030188;28;20025;-71
2022/11/27 10:31:24;;;;;;;18.20;6.65;;;8.90;99.50;;;;;;5030419;28;20030;-72
2022/11/27 10:33:54;;;;;;;13.18;6.38;;;8.90;99.50;;;;;;5030953;28;20029;-71
2022/11/27 10:36:40;;;;;;;13.52;5.88;;;8.90;99.40;;;;;;5030357;28;20141;-71
2022/11/27 10:39:15;;;;;;;11.23;5.85;;;9.00;99.50;;;;;;5030594;28;20025;-70
2022/11/27 10:42:06;;;;;;;19.27;6.85;;;8.90;99.50;;;;;;5029140;28;20034;-70
2022/11/27 10:44:36;;;;;;;14.98;5.60;;;9.00;99.70;;;;;;5030896;28;20541;-70
2022/11/27 10:47:05;;;;;;;11.85;6.15;;;9.00;99.40;;;;;;5034451;28;20056;-73
2022/11/27 10:49:33;;;;;;;17.63;8.00;;;9.00;99.50;;;;;;5033966;28;20041;-73
2022/11/27 10:51:59;;;;;;;13.40;5.78;;;9.10;99.40;;;;;;5033556;28;20404;-71
2022/11/27 10:54:35;;;;;;;12.80;5.63;;;9.00;99.30;;;;;;5033091;28;20076;-72
2022/11/27 10:57:29;;;;;;;16.38;6.05;;;9.00;99.40;;;;;;5034025;28;20041;-74
2022/11/27 11:00:04;;;;;;;14.63;6.10;;;9.00;99.40;;;;;;5034045;28;20494;-68
2022/11/27 11:02:37;;;;;;;10.95;5.90;;;9.10;99.40;;;;;;5034110;28;20045;-71
2022/11/27 11:05:21;;;;;;;13.02;5.13;;;9.10;99.30;;;;;;5033689;28;20051;-71
2022/11/27 11:07:59;;;;;;;11.40;5.63;;;9.10;99.20;;;;;;5033839;28;20026;-71
2022/11/27 11:10:26;;;;;;;;;;;9.20;99.30;;;;;;5034421;28;20948;-72
2022/11/27 11:13:18;;;;;;;11.57;5.30;;;9.20;99.10;;;;;;5034589;28;20355;-72
2022/11/27 11:15:49;;;;;;;14.90;5.43;;;9.20;99.20;;;;;;5033759;28;20336;-71
2022/11/27 11:18:21;;;;;;;14.70;5.50;;;9.20;99.10;;;;;;5032542;28;20030;-71
2022/11/27 11:20:50;;;;;;;13.48;5.70;;;9.20;99.10;;;;;;5032317;28;20029;-72
2022/11/27 11:23:27;;;;;;;12.48;5.25;;;9.20;99.00;;;;;;5033903;28;20048;-73
2022/11/27 11:25:57;;;;;;;11.35;5.07;;;9.30;99.20;;;;;;5033593;28;20041;-71
2022/11/27 11:28:23;;;;;;;12.77;6.20;;;9.20;99.00;;;;;;5032556;28;20092;-73
2022/11/27 11:30:56;;;;;;;13.27;5.55;;;9.20;99.40;;;;;;5033891;28;20091;-72
2022/11/27 11:33:22;;;;;;;15.73;6.18;;;9.30;99.20;;;;;;5033151;28;20037;-69
2022/11/27 11:35:53;;;;;;;14.43;5.82;;;9.40;99.10;;;;;;5033538;28;20025;-70
2022/11/27 11:38:29;;;;;;;14.63;5.43;;;9.40;99.10;;;;;;5033713;28;20044;-71
2022/11/27 11:41:06;;;;;;;10.32;4.68;;;9.40;98.90;;;;;;5015071;28;20334;-74
2022/11/27 11:43:35;;;;;;;13.30;5.35;;;9.40;98.90;;;;;;5013588;28;20114;-72
2022/11/27 11:46:27;;;;;;;25.70;6.72;;;9.40;98.80;;;;;;5014247;28;20092;-72
2022/11/27 11:49:04;;;;;;;12.65;5.88;;;9.40;98.90;;;;;;5012275;28;20050;-72
2022/11/27 11:51:57;;;;;;;11.73;4.77;;;9.40;98.80;;;;;;5013983;28;20026;-72
2022/11/27 11:54:41;;;;;;;12.30;5.13;;;9.40;98.70;;;;;;5013393;28;20452;-72
2022/11/27 11:57:48;;;;;;;13.30;5.57;;;9.40;98.70;;;;;;5012657;28;20109;-72
2022/11/27 12:00:23;;;;;;;11.73;5.43;;;9.40;98.60;;;;;;5013362;28;20037;-74
2022/11/27 12:03:03;;;;;;;11.25;4.60;;;9.40;98.60;;;;;;5013507;28;20036;-71
2022/11/27 12:06:23;;;;;;;10.75;4.82;;;9.40;98.60;;;;;;5013335;28;20061;-71
2022/11/27 12:09:04;;;;;;;11.90;5.25;;;9.40;98.60;;;;;;5004587;28;20034;-71
2022/11/27 12:11:59;;;;;;;14.15;5.70;;;9.40;98.50;;;;;;5012612;28;20387;-70
2022/11/27 12:14:59;;;;;;;12.57;5.72;;;9.50;98.70;;;;;;5012127;28;20042;-71
2022/11/27 12:18:02;;;;;;;8.73;4.93;;;9.50;98.50;;;;;;5026981;28;20450;-71
2022/11/27 12:20:46;;;;;;;14.18;5.32;;;9.60;98.70;;;;;;5032968;28;20431;-71
2022/11/27 12:23:29;;;;;;;16.60;8.40;;;9.60;98.50;;;;;;5031756;28;20022;-71
2022/11/27 12:26:11;;;;;;;17.50;7.00;;;9.50;98.40;;;;;;5032923;28;20048;-71
2022/11/27 12:28:55;;;;;;;14.73;4.68;;;9.50;98.30;;;;;;5031898;28;20025;-70
2022/11/27 12:31:45;;;;;;;12.73;5.60;;;9.60;98.40;;;;;;5032672;28;20029;-70
2022/11/27 12:34:59;;;;;;;16.52;4.82;;;9.60;98.20;;;;;;5032729;28;20328;-71
2022/11/27 12:37:24;;;;;;;11.20;5.10;;;9.60;98.20;;;;;;5027832;28;20109;-69
2022/11/27 12:39:56;;;;;;;11.68;4.60;;;9.60;98.30;;;;;;5033090;28;20112;-71
2022/11/27 12:42:49;;;;;;;11.80;5.22;;;9.60;98.20;;;;;;5032686;28;20087;-71
2022/11/27 12:45:42;;;;;;;10.63;5.13;;;9.60;98.10;;;;;;5032734;28;20488;-70
2022/11/27 12:48:25;;;;;;;9.70;5.13;;;9.60;98.10;;;;;;5029280;28;20048;-71
2022/11/27 12:50:56;;;;;;;11.20;4.68;;;9.70;98.20;;;;;;5031814;28;20467;-70
2022/11/27 12:53:29;;;;;;;10.15;5.07;;;9.70;98.10;;;;;;5032441;28;20041;-70
2022/11/27 12:56:20;;;;;;;15.23;6.35;;;9.70;98.10;;;;;;5032801;28;20049;-72
2022/11/27 12:58:50;;;;;;;11.88;4.72;;;9.70;98.00;;;;;;5032390;28;20034;-70
2022/11/27 13:01:44;;;;;;;14.30;5.32;;;9.70;98.20;;;;;;5032467;28;20040;-69
2022/11/27 13:04:17;;;;;;;10.45;5.30;;;9.70;97.90;;;;;;5031403;28;20394;-71
2022/11/27 13:07:28;;;;;;;12.52;4.75;;;9.70;97.90;;;;;;5032401;28;20048;-70